Terminal Aerodrome Forecast
Issued by NWS

Home | Current Version | Previous Version | Text Only | Print | Product List | Glossary On
Versions: 1 2 3 4 5 6 7 8 9 10 11 12 13 14 15 16 17
000
FTUS43 KMQT 311133
TAFSAW
TAF
KSAW 311133Z 3112/0112 23003KT 4SM BR SCT005
      TEMPO 3112/3113 1SM BR VV005
     FM311300 21005KT P6SM SCT012
     FM311600 19009G16KT P6SM SKC
     FM010500 22007KT P6SM FEW150
     FM011100 21008KT 5SM BR FEW150=

USA.gov is the U.S. government's official web portal to all federal, state and local government web resources and services.